createdAt,value
2023-02-05T00:01:25.692Z,3.78
2023-02-05T00:03:52.405Z,3.60
2023-02-05T00:06:19.200Z,3.90
2023-02-05T00:08:45.857Z,3.63
2023-02-05T00:11:12.888Z,3.75
2023-02-05T00:13:41.507Z,3.28
2023-02-05T00:16:12.959Z,3.97
2023-02-05T00:18:39.972Z,4.13
2023-02-05T00:21:07.745Z,3.72
2023-02-05T00:23:35.535Z,3.20
2023-02-05T00:26:03.314Z,3.63
2023-02-05T00:28:32.711Z,3.13
2023-02-05T00:30:59.926Z,3.42
2023-02-05T00:33:26.715Z,2.65
2023-02-05T00:35:53.439Z,2.58
2023-02-05T00:38:20.149Z,3.40
2023-02-05T00:40:46.794Z,3.25
2023-02-05T00:43:13.463Z,3.35
2023-02-05T00:45:40.159Z,2.92
2023-02-05T00:48:07.379Z,3.40
2023-02-05T00:50:34.506Z,3.25
2023-02-05T00:53:01.255Z,2.92
2023-02-05T00:55:28.292Z,3.20
2023-02-05T00:57:55.165Z,3.10
2023-02-05T01:00:22.453Z,2.67
2023-02-05T01:02:49.161Z,3.20
2023-02-05T01:05:16.129Z,2.90
2023-02-05T01:07:42.844Z,3.17
2023-02-05T01:10:09.929Z,2.70
2023-02-05T01:12:36.676Z,2.92
2023-02-05T01:15:06.664Z,2.92
2023-02-05T01:17:33.853Z,3.22
2023-02-05T01:20:00.786Z,3.30
2023-02-05T01:22:27.474Z,2.58
2023-02-05T01:24:54.190Z,3.00
2023-02-05T01:27:20.938Z,3.10
2023-02-05T01:29:47.651Z,3.33
2023-02-05T01:32:14.280Z,3.08
2023-02-05T01:34:40.916Z,2.83
2023-02-05T01:37:07.566Z,2.58
2023-02-05T01:39:36.253Z,3.65
2023-02-05T01:42:04.081Z,2.60
2023-02-05T01:44:31.515Z,2.30
2023-02-05T01:46:58.170Z,2.92
2023-02-05T01:49:30.135Z,3.40
2023-02-05T01:51:59.664Z,2.78
2023-02-05T01:54:29.436Z,2.65
2023-02-05T01:57:09.858Z,2.83
2023-02-05T01:59:40.953Z,2.72
2023-02-05T02:02:07.931Z,2.80
2023-02-05T02:04:43.566Z,2.83
2023-02-05T02:07:13.823Z,2.58
2023-02-05T02:09:42.950Z,3.35
2023-02-05T02:12:11.543Z,2.90
2023-02-05T02:14:42.226Z,3.17
2023-02-05T02:17:10.593Z,2.67
2023-02-05T02:19:37.290Z,3.08
2023-02-05T02:22:48.774Z,2.33
2023-02-05T02:25:37.018Z,2.50
2023-02-05T02:28:10.202Z,2.65
2023-02-05T02:30:46.918Z,2.58
2023-02-05T02:33:20.829Z,2.17
2023-02-05T02:36:06.624Z,2.75
2023-02-05T02:38:41.143Z,2.10
2023-02-05T02:41:18.303Z,2.00
2023-02-05T02:44:07.034Z,2.42
2023-02-05T02:46:42.311Z,2.22
2023-02-05T02:49:14.866Z,1.90
2023-02-05T02:51:42.642Z,2.55
2023-02-05T02:54:14.333Z,1.58
2023-02-05T02:56:42.475Z,2.08
2023-02-05T02:59:14.053Z,1.73
2023-02-05T03:01:49.597Z,2.20
2023-02-05T03:04:26.217Z,1.67
2023-02-05T03:06:55.522Z,1.75
2023-02-05T03:09:38.266Z,2.10
2023-02-05T03:12:05.164Z,1.85
2023-02-05T03:14:31.868Z,2.30
2023-02-05T03:16:58.971Z,1.85
2023-02-05T03:19:25.753Z,1.90
2023-02-05T03:21:57.886Z,1.65
2023-02-05T03:24:24.784Z,1.90
2023-02-05T03:26:51.522Z,2.40
2023-02-05T03:29:25.971Z,2.15
2023-02-05T03:32:04.698Z,2.22
2023-02-05T03:34:46.405Z,2.25
2023-02-05T03:37:38.696Z,2.30
2023-02-05T03:40:14.227Z,2.00
2023-02-05T03:43:11.060Z,1.90
2023-02-05T03:45:50.816Z,2.00
2023-02-05T03:48:41.837Z,2.50
2023-02-05T03:51:29.410Z,1.80
2023-02-05T03:54:31.472Z,1.92
2023-02-05T03:57:08.025Z,1.67
2023-02-05T03:59:36.600Z,1.88
2023-02-05T04:02:04.797Z,2.10
2023-02-05T04:04:31.727Z,1.95
2023-02-05T04:06:58.510Z,2.05
2023-02-05T04:09:25.207Z,1.83
2023-02-05T04:11:51.903Z,2.20
2023-02-05T04:14:18.562Z,1.65
2023-02-05T04:16:45.332Z,2.08
2023-02-05T04:19:12.047Z,1.58
2023-02-05T04:21:38.669Z,1.98
2023-02-05T04:24:06.580Z,2.90
2023-02-05T04:26:33.328Z,2.45
2023-02-05T04:29:00.389Z,1.98
2023-02-05T04:31:27.152Z,2.38
2023-02-05T04:33:53.802Z,2.15
2023-02-05T04:36:20.445Z,2.40
2023-02-05T04:38:47.141Z,2.00
2023-02-05T04:41:13.844Z,1.90
2023-02-05T04:43:40.448Z,2.20
2023-02-05T04:46:11.743Z,1.70
2023-02-05T04:48:38.944Z,1.67
2023-02-05T04:51:10.750Z,2.28
2023-02-05T04:53:37.942Z,2.00
2023-02-05T04:56:09.515Z,2.05
2023-02-05T04:58:36.638Z,1.67
2023-02-05T05:01:04.305Z,1.63
2023-02-05T05:03:31.275Z,1.95
2023-02-05T05:06:04.735Z,2.20
2023-02-05T05:08:31.787Z,1.70
2023-02-05T05:10:58.455Z,1.92
2023-02-05T05:13:25.203Z,2.13
2023-02-05T05:15:56.641Z,2.28
2023-02-05T05:18:23.351Z,2.63
2023-02-05T05:20:50.037Z,2.55
2023-02-05T05:23:16.808Z,1.85
2023-02-05T05:25:44.268Z,2.03
2023-02-05T05:28:12.305Z,2.17
2023-02-05T05:30:40.446Z,2.10
2023-02-05T05:33:07.622Z,2.10
2023-02-05T05:35:34.894Z,1.52
2023-02-05T05:38:02.498Z,1.95
2023-02-05T05:40:48.433Z,1.80
2023-02-05T05:43:37.489Z,2.58
2023-02-05T05:46:05.536Z,1.88
2023-02-05T05:48:32.443Z,2.40
2023-02-05T05:50:59.240Z,2.58
2023-02-05T05:53:25.971Z,2.28
2023-02-05T05:55:52.675Z,1.88
2023-02-05T05:58:19.416Z,1.92
2023-02-05T06:00:46.127Z,2.03
2023-02-05T06:03:13.032Z,1.83
2023-02-05T06:05:39.780Z,2.30
2023-02-05T06:08:06.831Z,2.38
2023-02-05T06:10:33.668Z,2.28
2023-02-05T06:13:00.576Z,1.98
2023-02-05T06:15:27.740Z,1.88
2023-02-05T06:17:54.457Z,2.10
2023-02-05T06:20:21.213Z,1.90
2023-02-05T06:22:47.931Z,2.42
2023-02-05T06:25:15.653Z,1.95
2023-02-05T06:27:42.459Z,1.83
2023-02-05T06:30:10.091Z,1.98
2023-02-05T06:32:36.761Z,2.13
2023-02-05T06:35:03.606Z,2.50
2023-02-05T06:37:46.177Z,2.20
2023-02-05T06:40:15.711Z,1.88
2023-02-05T06:42:42.540Z,2.30
2023-02-05T06:45:10.266Z,2.40
2023-02-05T06:47:38.152Z,2.72
2023-02-05T06:50:06.323Z,2.05
2023-02-05T06:52:33.040Z,2.50
2023-02-05T06:54:59.696Z,2.33
2023-02-05T06:57:26.344Z,2.22
2023-02-05T06:59:53.001Z,2.25
2023-02-05T07:02:19.756Z,2.72
2023-02-05T07:04:46.464Z,2.50
2023-02-05T07:07:13.744Z,2.83
2023-02-05T07:09:40.679Z,3.20
2023-02-05T07:12:07.622Z,2.65
2023-02-05T07:14:41.302Z,2.50
2023-02-05T07:17:08.804Z,2.63
2023-02-05T07:19:36.522Z,2.20
2023-02-05T07:22:03.933Z,2.72
2023-02-05T07:24:31.330Z,2.53
2023-02-05T07:26:58.092Z,2.40
2023-02-05T07:29:24.810Z,3.53
2023-02-05T07:31:52.423Z,2.58
2023-02-05T07:34:19.570Z,3.10
2023-02-05T07:36:49.094Z,3.30
2023-02-05T07:39:16.001Z,2.60
2023-02-05T07:41:42.725Z,2.80
2023-02-05T07:44:09.439Z,2.63
2023-02-05T07:46:36.381Z,2.97
2023-02-05T07:49:03.232Z,3.08
2023-02-05T07:51:29.965Z,4.47
2023-02-05T07:53:56.760Z,2.90
2023-02-05T07:56:25.661Z,3.13
2023-02-05T07:58:52.460Z,3.10
2023-02-05T08:01:19.209Z,3.30
2023-02-05T08:03:46.027Z,3.47
2023-02-05T08:06:15.752Z,3.83
2023-02-05T08:08:42.829Z,3.80
2023-02-05T08:11:14.785Z,3.72
2023-02-05T08:13:41.700Z,4.70
2023-02-05T08:16:08.699Z,4.63
2023-02-05T08:18:35.637Z,3.97
2023-02-05T08:21:02.361Z,3.80
2023-02-05T08:23:29.076Z,4.32
2023-02-05T08:25:57.014Z,4.45
2023-02-05T08:28:25.090Z,4.53
2023-02-05T08:30:52.004Z,4.70
2023-02-05T08:33:18.755Z,3.70
2023-02-05T08:35:45.534Z,4.25
2023-02-05T08:38:12.265Z,3.95
2023-02-05T08:40:38.943Z,4.68
2023-02-05T08:43:05.775Z,4.38
2023-02-05T08:45:32.746Z,4.50
2023-02-05T08:47:59.665Z,4.25
2023-02-05T08:50:26.437Z,4.35
2023-02-05T08:52:53.095Z,4.63
2023-02-05T08:55:19.783Z,4.05
2023-02-05T08:57:46.548Z,4.75
2023-02-05T09:00:15.074Z,5.45
2023-02-05T09:02:43.224Z,4.75
2023-02-05T09:05:10.301Z,3.95
2023-02-05T09:07:40.637Z,4.10
2023-02-05T09:10:08.920Z,4.65
2023-02-05T09:12:35.615Z,4.18
2023-02-05T09:15:02.359Z,4.70
2023-02-05T09:17:29.002Z,4.95
2023-02-05T09:19:55.708Z,4.57
2023-02-05T09:22:22.360Z,4.60
2023-02-05T09:24:49.087Z,4.72
2023-02-05T09:27:15.791Z,4.85
2023-02-05T09:29:42.482Z,4.95
2023-02-05T09:32:09.152Z,5.57
2023-02-05T09:34:35.814Z,4.75
2023-02-05T09:37:02.689Z,4.72
2023-02-05T09:40:17.171Z,5.05
2023-02-05T09:42:20.411Z,5.30
2023-02-05T09:45:05.545Z,4.90
2023-02-05T09:47:39.746Z,8.68
2023-02-05T09:50:25.722Z,7.40
2023-02-05T09:52:54.804Z,5.45
2023-02-05T09:55:26.298Z,5.95
2023-02-05T09:58:00.952Z,5.38
2023-02-05T10:00:33.865Z,6.63
2023-02-05T10:03:21.242Z,5.85
2023-02-05T10:06:09.523Z,5.80
2023-02-05T10:08:55.067Z,5.25
2023-02-05T10:11:43.107Z,5.28
2023-02-05T10:14:36.858Z,5.93
2023-02-05T10:17:12.211Z,6.72
2023-02-05T10:20:00.853Z,5.25
2023-02-05T10:22:36.862Z,5.80
2023-02-05T10:25:25.686Z,6.03
2023-02-05T10:28:17.123Z,5.63
2023-02-05T10:30:50.816Z,5.35
2023-02-05T10:33:23.010Z,5.68
2023-02-05T10:36:01.154Z,6.15
2023-02-05T10:38:34.062Z,6.28
2023-02-05T10:41:17.057Z,5.75
2023-02-05T10:43:54.882Z,6.00
2023-02-05T10:46:22.163Z,7.93
2023-02-05T10:49:01.362Z,5.32
2023-02-05T10:51:39.849Z,6.30
2023-02-05T10:54:23.437Z,6.22
2023-02-05T10:56:50.171Z,5.40
2023-02-05T10:59:26.974Z,6.30
2023-02-05T11:01:56.505Z,5.47
2023-02-05T11:04:45.736Z,5.72
2023-02-05T11:07:39.468Z,4.57
2023-02-05T11:10:23.572Z,5.03
2023-02-05T11:13:20.884Z,5.53
2023-02-05T11:15:55.646Z,5.38
2023-02-05T11:18:27.699Z,5.38
2023-02-05T11:21:03.686Z,4.65
2023-02-05T11:23:32.168Z,6.03
2023-02-05T11:26:01.583Z,5.95
2023-02-05T11:28:35.854Z,6.18
2023-02-05T11:31:32.143Z,5.38
2023-02-05T11:34:11.645Z,5.60
2023-02-05T11:36:48.421Z,6.15
2023-02-05T11:39:35.953Z,5.88
2023-02-05T11:42:32.150Z,5.28
2023-02-05T11:45:01.755Z,5.78
2023-02-05T11:47:32.626Z,5.57
2023-02-05T11:50:03.623Z,6.10
2023-02-05T11:52:36.466Z,6.47
2023-02-05T11:55:04.715Z,4.97
2023-02-05T11:57:41.877Z,4.95
2023-02-05T12:00:08.638Z,5.10
2023-02-05T12:02:37.623Z,5.18
2023-02-05T12:05:12.612Z,5.53
2023-02-05T12:07:47.868Z,4.93
2023-02-05T12:10:52.236Z,5.38
2023-02-05T12:15:57.761Z,5.28
2023-02-05T12:19:02.690Z,4.97
2023-02-05T12:21:45.712Z,5.43
2023-02-05T12:24:18.284Z,6.28
2023-02-05T12:26:47.506Z,6.00
2023-02-05T12:30:00.219Z,6.55
2023-02-05T12:33:01.129Z,6.00
2023-02-05T12:35:46.641Z,5.88
2023-02-05T12:39:00.534Z,6.57
2023-02-05T12:41:34.575Z,5.85
2023-02-05T12:44:21.860Z,6.22
2023-02-05T12:46:48.530Z,6.03
2023-02-05T12:49:27.224Z,6.03
2023-02-05T12:52:02.778Z,6.28
2023-02-05T12:54:50.048Z,5.75
2023-02-05T12:57:22.292Z,6.70
2023-02-05T13:00:03.903Z,6.55
2023-02-05T13:02:55.284Z,5.60
2023-02-05T13:05:33.458Z,6.07
2023-02-05T13:08:19.044Z,6.07
2023-02-05T13:13:22.075Z,5.82
2023-02-05T13:16:01.168Z,6.60
2023-02-05T13:18:34.407Z,6.28
2023-02-05T13:21:24.106Z,6.03
2023-02-05T13:24:15.097Z,5.65
2023-02-05T13:27:04.309Z,6.35
2023-02-05T13:29:43.708Z,6.40
2023-02-05T13:32:16.406Z,6.45
2023-02-05T13:34:43.599Z,6.28
2023-02-05T13:37:30.230Z,7.35
2023-02-05T13:40:18.512Z,6.22
2023-02-05T13:43:17.587Z,6.55
2023-02-05T13:46:19.671Z,6.65
2023-02-05T13:48:55.285Z,6.47
2023-02-05T13:51:44.236Z,6.78
2023-02-05T13:54:38.128Z,6.50
2023-02-05T13:57:23.780Z,6.95
2023-02-05T13:59:52.922Z,6.63
2023-02-05T14:02:41.026Z,6.60
2023-02-05T14:05:08.340Z,7.20
2023-02-05T14:07:50.602Z,6.75
2023-02-05T14:10:48.214Z,6.45
2023-02-05T14:13:32.584Z,7.55
2023-02-05T14:16:25.026Z,7.25
2023-02-05T14:19:00.773Z,6.78
2023-02-05T14:21:30.230Z,7.07
2023-02-05T14:24:41.194Z,7.28
2023-02-05T14:27:26.204Z,7.80
2023-02-05T14:29:53.563Z,7.30
2023-02-05T14:32:26.358Z,8.00
2023-02-05T14:35:22.290Z,7.60
2023-02-05T14:37:49.881Z,9.25
2023-02-05T14:40:32.593Z,8.32
2023-02-05T14:43:13.367Z,8.70
2023-02-05T14:46:05.273Z,9.02
2023-02-05T14:48:36.376Z,8.73
2023-02-05T14:51:06.525Z,7.60
2023-02-05T14:53:35.805Z,7.53
2023-02-05T14:56:03.651Z,8.27
2023-02-05T14:58:40.979Z,7.55
2023-02-05T15:01:29.794Z,7.70
2023-02-05T15:03:59.578Z,7.18
2023-02-05T15:06:29.222Z,7.18
2023-02-05T15:09:12.236Z,6.35
2023-02-05T15:12:07.092Z,6.45
2023-02-05T15:14:37.739Z,6.57
2023-02-05T15:17:07.297Z,6.88
2023-02-05T15:19:40.616Z,6.38
2023-02-05T15:22:25.456Z,6.70
2023-02-05T15:24:53.750Z,5.68
2023-02-05T15:27:27.406Z,7.50
2023-02-05T15:29:57.604Z,6.85
2023-02-05T15:32:32.709Z,8.23
2023-02-05T15:35:14.281Z,6.70
2023-02-05T15:37:54.618Z,6.70
2023-02-05T15:40:29.128Z,6.88
2023-02-05T15:43:15.720Z,6.18
2023-02-05T15:45:45.290Z,7.53
2023-02-05T15:48:16.690Z,5.70
2023-02-05T15:50:55.506Z,6.05
2023-02-05T15:53:30.245Z,6.88
2023-02-05T15:55:57.820Z,6.35
2023-02-05T15:58:26.631Z,7.65
2023-02-05T16:00:53.674Z,7.03
2023-02-05T16:03:33.329Z,6.93
2023-02-05T16:06:00.289Z,8.52
2023-02-05T16:08:29.088Z,10.20
2023-02-05T16:10:58.292Z,9.27
2023-02-05T16:13:28.831Z,7.47
2023-02-05T16:16:09.683Z,7.82
2023-02-05T16:18:49.292Z,7.70
2023-02-05T16:21:28.181Z,7.88
2023-02-05T16:24:04.847Z,6.75
2023-02-05T16:26:45.329Z,8.27
2023-02-05T16:29:46.159Z,8.82
2023-02-05T16:32:35.773Z,7.68
2023-02-05T16:35:05.460Z,7.75
2023-02-05T16:37:33.037Z,7.50
2023-02-05T16:40:02.869Z,8.10
2023-02-05T16:42:44.724Z,7.80
2023-02-05T16:45:21.689Z,8.13
2023-02-05T16:48:24.766Z,8.18
2023-02-05T16:50:52.146Z,8.93
2023-02-05T16:53:34.880Z,8.50
2023-02-05T16:56:21.659Z,8.27
2023-02-05T16:58:52.557Z,7.72
2023-02-05T17:01:25.023Z,8.88
2023-02-05T17:03:51.909Z,8.43
2023-02-05T17:06:19.160Z,8.75
2023-02-05T17:08:55.422Z,9.45
2023-02-05T17:11:38.898Z,8.30
2023-02-05T17:14:31.456Z,8.85
2023-02-05T17:17:02.950Z,9.15
2023-02-05T17:22:13.628Z,8.30
2023-02-05T17:24:41.709Z,9.45
2023-02-05T17:27:17.368Z,9.63
2023-02-05T17:29:44.788Z,10.05
2023-02-05T17:32:19.934Z,11.18
2023-02-05T17:34:47.248Z,10.80
2023-02-05T17:37:14.426Z,10.80
2023-02-05T17:39:41.337Z,11.02
2023-02-05T17:42:19.361Z,10.57
2023-02-05T17:44:46.174Z,11.35
2023-02-05T17:47:12.995Z,9.65
2023-02-05T17:49:39.774Z,10.75
2023-02-05T17:52:06.547Z,9.57
2023-02-05T17:54:33.248Z,9.73
2023-02-05T17:57:15.817Z,9.27
2023-02-05T17:59:44.831Z,10.02
2023-02-05T18:02:13.243Z,12.32
2023-02-05T18:04:41.218Z,9.77
2023-02-05T18:07:30.756Z,10.43
2023-02-05T18:09:58.243Z,11.93
2023-02-05T18:12:25.786Z,9.85
2023-02-05T18:14:52.602Z,9.15
2023-02-05T18:17:19.365Z,11.00
2023-02-05T18:19:46.373Z,9.57
2023-02-05T18:22:13.048Z,9.45
2023-02-05T18:24:39.862Z,9.85
2023-02-05T18:27:08.172Z,9.70
2023-02-05T18:29:36.026Z,9.52
2023-02-05T18:32:03.057Z,9.80
2023-02-05T18:34:29.893Z,10.55
2023-02-05T18:36:56.528Z,10.20
2023-02-05T18:39:28.406Z,10.13
2023-02-05T18:41:56.326Z,9.93
2023-02-05T18:44:23.153Z,9.38
2023-02-05T18:46:49.898Z,9.35
2023-02-05T18:49:16.683Z,10.55
2023-02-05T18:51:43.699Z,10.23
2023-02-05T18:54:10.737Z,10.02
2023-02-05T18:56:38.213Z,10.52
2023-02-05T18:59:07.610Z,9.75
2023-02-05T19:01:36.561Z,9.48
2023-02-05T19:04:05.838Z,10.02
2023-02-05T19:06:32.499Z,10.45
2023-02-05T19:09:00.467Z,10.30
2023-02-05T19:11:28.974Z,8.60
2023-02-05T19:14:00.562Z,8.95
2023-02-05T19:16:29.421Z,8.90
2023-02-05T19:18:56.550Z,10.52
2023-02-05T19:21:24.946Z,9.57
2023-02-05T19:23:53.831Z,9.15
2023-02-05T19:26:23.244Z,9.38
2023-02-05T19:28:56.127Z,9.40
2023-02-05T19:31:25.338Z,8.57
2023-02-05T19:33:52.484Z,9.80
2023-02-05T19:36:19.986Z,9.50
2023-02-05T19:38:46.863Z,9.52
2023-02-05T19:41:19.152Z,11.48
2023-02-05T19:43:51.065Z,13.18
2023-02-05T19:46:22.384Z,11.57
2023-02-05T19:48:49.094Z,9.93
2023-02-05T19:51:16.592Z,10.38
2023-02-05T19:53:45.278Z,11.52
2023-02-05T19:56:30.556Z,9.88
2023-02-05T19:58:57.367Z,9.88
2023-02-05T20:01:30.018Z,9.25
2023-02-05T20:06:27.223Z,10.82
2023-02-05T20:08:54.262Z,10.70
2023-02-05T20:11:22.405Z,10.27
2023-02-05T20:13:49.317Z,10.02
2023-02-05T20:16:19.019Z,10.80
2023-02-05T20:18:46.571Z,10.93
2023-02-05T20:21:16.061Z,11.60
2023-02-05T20:23:42.914Z,12.52
2023-02-05T20:26:10.534Z,10.98
2023-02-05T20:28:58.678Z,11.02
2023-02-05T20:31:33.865Z,10.35
2023-02-05T20:34:08.691Z,9.02
2023-02-05T20:36:36.471Z,11.05
2023-02-05T20:39:06.884Z,9.50
2023-02-05T20:41:34.077Z,9.75
2023-02-05T20:44:01.240Z,9.68
2023-02-05T20:46:28.101Z,9.25
2023-02-05T20:48:54.829Z,8.65
2023-02-05T20:51:23.064Z,9.30
2023-02-05T20:53:50.341Z,9.32
2023-02-05T20:56:20.495Z,9.50
2023-02-05T20:58:48.357Z,8.60
2023-02-05T21:01:21.547Z,8.90
2023-02-05T21:03:54.195Z,9.43
2023-02-05T21:06:23.995Z,8.93
2023-02-05T21:08:52.224Z,8.45
2023-02-05T21:11:21.113Z,9.00
2023-02-05T21:13:49.302Z,9.23
2023-02-05T21:16:18.337Z,9.55
2023-02-05T21:18:46.309Z,9.63
2023-02-05T21:21:25.679Z,8.90
2023-02-05T21:23:57.127Z,9.45
2023-02-05T21:26:32.925Z,8.60
2023-02-05T21:29:03.303Z,8.60
2023-02-05T21:31:34.897Z,9.45
2023-02-05T21:34:03.454Z,10.45
2023-02-05T21:36:30.788Z,9.35
2023-02-05T21:38:57.543Z,8.82
2023-02-05T21:41:24.906Z,9.90
2023-02-05T21:43:54.138Z,8.98
2023-02-05T21:46:22.345Z,10.50
2023-02-05T21:48:53.544Z,9.02
2023-02-05T21:51:22.034Z,9.52
2023-02-05T21:53:57.270Z,8.32
2023-02-05T21:56:32.025Z,9.25
2023-02-05T21:58:58.821Z,9.93
2023-02-05T22:01:30.870Z,9.75
2023-02-05T22:04:00.354Z,9.20
2023-02-05T22:06:29.550Z,10.00
2023-02-05T22:08:57.207Z,9.38
2023-02-05T22:11:25.156Z,9.65
2023-02-05T22:13:53.500Z,8.68
2023-02-05T22:16:23.240Z,10.73
2023-02-05T22:18:51.039Z,11.07
2023-02-05T22:21:28.804Z,9.68
2023-02-05T22:23:57.442Z,9.05
2023-02-05T22:26:30.696Z,8.88
2023-02-05T22:28:59.269Z,9.18
2023-02-05T22:31:27.539Z,9.35
2023-02-05T22:33:54.919Z,9.70
2023-02-05T22:36:24.988Z,9.38
2023-02-05T22:38:52.470Z,9.77
2023-02-05T22:41:44.256Z,8.73
2023-02-05T22:46:41.047Z,8.60
2023-02-05T22:49:08.295Z,8.38
2023-02-05T22:51:38.056Z,8.68
2023-02-05T22:54:05.341Z,9.18
2023-02-05T22:56:32.661Z,9.82
2023-02-05T22:59:02.067Z,9.00
2023-02-05T23:01:33.153Z,9.65
2023-02-05T23:04:02.050Z,9.82
2023-02-05T23:06:31.630Z,9.63
2023-02-05T23:09:00.556Z,8.65
2023-02-05T23:11:29.216Z,9.07
2023-02-05T23:13:57.464Z,9.88
2023-02-05T23:16:30.882Z,9.75
2023-02-05T23:19:00.774Z,10.30
2023-02-05T23:21:30.057Z,9.95
2023-02-05T23:23:57.052Z,9.85
2023-02-05T23:26:26.305Z,9.57
2023-02-05T23:28:55.113Z,9.68
2023-02-05T23:31:22.917Z,9.63
2023-02-05T23:33:50.619Z,9.50
2023-02-05T23:36:17.375Z,10.07
2023-02-05T23:38:44.334Z,9.98
2023-02-05T23:41:12.201Z,9.82
2023-02-05T23:43:39.277Z,9.77
2023-02-05T23:46:07.648Z,10.02
2023-02-05T23:48:34.451Z,9.27
2023-02-05T23:51:01.680Z,8.82
2023-02-05T23:53:28.600Z,9.90
2023-02-05T23:55:55.298Z,8.13
2023-02-05T23:58:25.748Z,8.48
